Time;durP1;ratioP1;P1;durP2;ratioP2;P2;SDS_P1;SDS_P2;PMS_P1;PMS_P2;Temp;Humidity;BMP_temperature;BMP_pressure;BME280_temperature;BME280_humidity;BME280_pressure;Samples;Min_cycle;Max_cycle;Signal;HPM_P1;HPM_P2
2022/08/17 00:01:38;;;;;;;37.47;29.07;;;20.60;99.90;;;;;;4976355;28;20257;-63
2022/08/17 00:04:20;;;;;;;40.83;30.63;;;20.50;99.90;;;;;;4987452;28;20222;-63
2022/08/17 00:06:49;;;;;;;32.70;27.60;;;20.50;99.90;;;;;;4990987;28;20685;-63
2022/08/17 00:09:18;;;;;;;34.80;28.47;;;20.50;99.90;;;;;;4992890;28;20550;-63
2022/08/17 00:11:49;;;;;;;38.13;29.10;;;20.50;99.90;;;;;;4986540;28;20546;-63
2022/08/17 00:14:38;;;;;;;33.57;28.57;;;20.50;99.90;;;;;;5001249;28;20773;-64
2022/08/17 00:17:08;;;;;;;32.77;27.57;;;20.40;99.90;;;;;;4991880;28;20203;-63
2022/08/17 00:19:37;;;;;;;36.50;29.63;;;20.40;99.90;;;;;;5001400;28;20190;-63
2022/08/17 00:22:11;;;;;;;32.03;27.17;;;20.40;99.90;;;;;;4985130;28;20203;-63
2022/08/17 00:25:00;;;;;;;36.03;28.43;;;20.30;99.90;;;;;;5009091;28;20208;-63
2022/08/17 00:27:29;;;;;;;34.73;27.90;;;20.30;99.90;;;;;;4984771;28;20258;-63
2022/08/17 00:29:57;;;;;;;35.73;29.17;;;20.30;99.90;;;;;;4993137;28;20199;-63
2022/08/17 00:32:27;;;;;;;35.70;29.50;;;20.30;99.90;;;;;;4991824;28;20253;-63
2022/08/17 00:35:22;;;;;;;33.87;28.17;;;20.30;99.90;;;;;;4978593;28;20199;-62
2022/08/17 00:37:50;;;;;;;35.17;30.33;;;20.30;99.90;;;;;;4985880;28;20244;-62
2022/08/17 00:40:20;;;;;;;38.80;30.30;;;20.30;99.90;;;;;;4986160;28;20218;-63
2022/08/17 00:42:52;;;;;;;39.07;30.60;;;20.30;99.90;;;;;;4989985;28;20207;-62
2022/08/17 00:45:21;;;;;;;37.13;29.90;;;20.20;99.90;;;;;;4974862;28;20253;-62
2022/08/17 00:47:51;;;;;;;40.93;29.97;;;20.20;99.90;;;;;;4978360;28;20222;-63
2022/08/17 00:50:19;;;;;;;43.30;30.47;;;20.20;99.90;;;;;;4986578;28;20203;-62
2022/08/17 00:52:55;;;;;;;37.33;29.93;;;20.20;99.90;;;;;;4978775;28;20294;-63
2022/08/17 00:55:26;;;;;;;37.07;28.77;;;20.30;99.90;;;;;;4989230;28;20253;-62
2022/08/17 00:58:00;;;;;;;43.07;29.33;;;20.30;99.90;;;;;;4993193;28;20221;-62
2022/08/17 01:00:33;;;;;;;38.93;28.70;;;20.30;99.90;;;;;;4991780;28;20200;-63
2022/08/17 01:03:09;;;;;;;37.43;28.40;;;20.30;99.90;;;;;;4982196;28;20186;-63
2022/08/17 01:05:39;;;;;;;35.73;28.53;;;20.30;99.90;;;;;;4993736;28;20201;-63
2022/08/17 01:08:13;;;;;;;34.80;28.20;;;20.30;99.90;;;;;;4982949;28;20225;-62
2022/08/17 01:10:43;;;;;;;38.00;27.60;;;20.30;99.90;;;;;;4992532;28;20225;-62
2022/08/17 01:13:31;;;;;;;34.37;28.03;;;20.30;99.90;;;;;;4991588;28;20247;-62
2022/08/17 01:16:14;;;;;;;33.90;27.67;;;20.30;99.90;;;;;;4990214;28;20194;-62
2022/08/17 01:18:46;;;;;;;38.20;30.30;;;20.30;99.90;;;;;;4998541;28;20253;-62
2022/08/17 01:21:22;;;;;;;40.60;31.37;;;20.30;99.90;;;;;;4991006;28;20622;-62
2022/08/17 01:23:52;;;;;;;36.53;29.87;;;20.30;99.90;;;;;;4990831;28;20695;-63
2022/08/17 01:26:21;;;;;;;35.83;29.40;;;20.30;99.90;;;;;;4969392;28;20242;-62
2022/08/17 01:28:50;;;;;;;40.00;32.30;;;20.20;99.90;;;;;;4981977;28;20245;-62
2022/08/17 01:31:25;;;;;;;38.47;30.53;;;20.20;99.90;;;;;;4985052;28;20199;-62
2022/08/17 01:33:53;;;;;;;39.87;31.17;;;20.20;99.90;;;;;;5000643;28;20278;-62
2022/08/17 01:36:22;;;;;;;37.20;30.97;;;20.20;99.90;;;;;;4990317;28;20269;-62
2022/08/17 01:38:52;;;;;;;35.83;30.57;;;20.20;99.90;;;;;;4998942;28;20222;-62
2022/08/17 01:41:22;;;;;;;44.10;32.63;;;20.20;99.90;;;;;;4991964;28;20198;-62
2022/08/17 01:43:54;;;;;;;38.90;32.53;;;20.20;99.90;;;;;;4989184;28;20194;-62
2022/08/17 01:46:26;;;;;;;44.50;33.67;;;20.20;99.90;;;;;;4993397;28;20206;-62
2022/08/17 01:48:56;;;;;;;39.93;32.63;;;20.20;99.90;;;;;;4991298;28;20194;-62
2022/08/17 01:51:29;;;;;;;42.53;31.77;;;20.20;99.90;;;;;;4989401;28;20286;-62
2022/08/17 01:54:01;;;;;;;40.00;32.30;;;20.20;99.90;;;;;;5002219;28;20201;-63
2022/08/17 01:56:32;;;;;;;39.57;33.00;;;20.10;99.90;;;;;;4987941;28;20226;-62
2022/08/17 01:59:01;;;;;;;41.77;31.77;;;20.10;99.90;;;;;;4992175;28;20229;-62
2022/08/17 02:01:31;;;;;;;46.20;34.17;;;20.10;99.90;;;;;;4992182;28;20693;-63
2022/08/17 02:04:00;;;;;;;42.50;32.87;;;20.20;99.90;;;;;;4997295;28;20703;-62
2022/08/17 02:06:30;;;;;;;43.07;34.77;;;20.10;99.90;;;;;;4988473;28;20231;-62
2022/08/17 02:09:15;;;;;;;43.07;33.33;;;20.10;99.90;;;;;;4993763;28;20202;-61
2022/08/17 02:11:46;;;;;;;45.07;34.10;;;20.10;99.90;;;;;;4989443;28;20373;-61
2022/08/17 02:14:14;;;;;;;46.10;34.03;;;20.10;99.90;;;;;;4992101;28;20627;-61
2022/08/17 02:16:43;;;;;;;45.00;36.33;;;20.10;99.90;;;;;;4999000;28;20218;-62
2022/08/17 02:19:14;;;;;;;43.90;35.10;;;20.00;99.90;;;;;;4987813;28;20317;-61
2022/08/17 02:21:46;;;;;;;46.87;35.83;;;20.00;99.90;;;;;;4991656;28;20204;-62
2022/08/17 02:24:20;;;;;;;48.50;36.03;;;20.00;99.90;;;;;;4996560;28;20325;-61
2022/08/17 02:27:08;;;;;;;45.83;35.50;;;20.00;99.90;;;;;;4993778;28;20690;-61
2022/08/17 02:29:37;;;;;;;45.97;34.97;;;20.00;99.90;;;;;;4988785;28;20190;-62
2022/08/17 02:32:06;;;;;;;46.13;35.00;;;19.90;99.90;;;;;;4992747;28;20214;-63
2022/08/17 02:34:34;;;;;;;50.47;38.10;;;20.00;99.90;;;;;;4971898;28;20214;-61
2022/08/17 02:37:03;;;;;;;46.77;34.63;;;19.90;99.90;;;;;;4980931;28;20249;-61
2022/08/17 02:39:33;;;;;;;50.63;38.63;;;19.90;99.90;;;;;;4994368;28;20302;-62
2022/08/17 02:42:03;;;;;;;50.67;38.93;;;19.90;99.90;;;;;;4987636;28;20210;-61
2022/08/17 02:44:31;;;;;;;46.97;37.40;;;19.90;99.90;;;;;;4991296;28;20278;-62
2022/08/17 02:47:08;;;;;;;51.77;38.37;;;19.90;99.90;;;;;;4991690;28;20206;-61
2022/08/17 02:49:37;;;;;;;50.57;39.57;;;19.90;99.90;;;;;;4994095;28;20277;-62
2022/08/17 02:52:07;;;;;;;61.27;42.23;;;19.90;99.90;;;;;;4992359;28;20191;-61
2022/08/17 02:54:37;;;;;;;59.60;44.97;;;19.90;99.90;;;;;;4992265;28;20207;-62
2022/08/17 02:57:09;;;;;;;66.53;46.77;;;19.90;99.90;;;;;;4992901;28;20206;-62
2022/08/17 02:59:41;;;;;;;60.63;45.27;;;19.90;99.90;;;;;;4982930;28;20298;-62
2022/08/17 03:02:16;;;;;;;57.63;43.40;;;20.00;99.90;;;;;;4969229;28;20197;-62
2022/08/17 03:04:44;;;;;;;64.77;46.33;;;20.00;99.90;;;;;;4989272;28;20794;-61
2022/08/17 03:07:12;;;;;;;66.00;46.93;;;20.00;99.90;;;;;;4982908;28;20269;-62
2022/08/17 03:09:43;;;;;;;67.70;48.70;;;20.00;99.90;;;;;;4994409;28;20723;-61
2022/08/17 03:12:13;;;;;;;66.80;47.13;;;19.90;99.90;;;;;;4995282;28;20600;-61
2022/08/17 03:14:43;;;;;;;63.20;45.93;;;19.90;99.90;;;;;;4978403;28;20191;-62
2022/08/17 03:17:12;;;;;;;62.90;46.83;;;19.90;99.90;;;;;;4984129;28;20658;-61
2022/08/17 03:19:48;;;;;;;68.97;48.20;;;19.90;99.90;;;;;;4992258;28;20223;-62
2022/08/17 03:22:16;;;;;;;61.43;45.80;;;19.80;99.90;;;;;;4982544;28;20570;-62
2022/08/17 03:25:09;;;;;;;58.30;43.43;;;19.80;99.90;;;;;;4980490;28;20233;-62
2022/08/17 03:27:38;;;;;;;62.87;45.30;;;19.80;99.90;;;;;;4987883;28;20218;-62
2022/08/17 03:30:11;;;;;;;68.77;48.37;;;19.80;99.90;;;;;;4986892;28;20593;-61
2022/08/17 03:32:43;;;;;;;67.77;47.27;;;19.80;99.90;;;;;;4998412;28;20591;-63
2022/08/17 03:35:13;;;;;;;64.50;47.43;;;19.80;99.90;;;;;;4991893;28;20206;-62
2022/08/17 03:37:45;;;;;;;64.10;47.00;;;19.80;99.90;;;;;;4993812;28;20230;-62
2022/08/17 03:40:16;;;;;;;62.37;43.43;;;19.80;99.90;;;;;;4983959;28;20278;-62
2022/08/17 03:43:06;;;;;;;60.50;45.60;;;19.80;99.90;;;;;;4993745;28;20716;-61
2022/08/17 03:56:57;;;;;;;75.70;52.93;;;19.80;99.90;;;;;;4989823;28;20205;-62
2022/08/17 03:59:26;;;;;;;72.07;49.90;;;19.80;99.90;;;;;;4990308;28;20260;-62
2022/08/17 04:02:00;;;;;;;74.17;52.73;;;19.80;99.90;;;;;;4992072;28;20207;-62
2022/08/17 04:05:06;;;;;;;77.80;53.73;;;19.80;99.90;;;;;;5002397;28;20201;-62
2022/08/17 04:08:03;;;;;;;81.03;56.60;;;19.70;99.90;;;;;;4966714;28;20593;-62
2022/08/17 04:10:33;;;;;;;79.70;55.53;;;19.70;99.90;;;;;;4972915;28;20597;-62
2022/08/17 04:13:13;;;;;;;86.27;58.00;;;19.70;99.90;;;;;;4981007;28;20194;-62
2022/08/17 04:15:41;;;;;;;82.70;55.40;;;19.60;99.90;;;;;;4993688;28;20199;-61
2022/08/17 04:18:10;;;;;;;87.30;59.17;;;19.50;99.90;;;;;;4982695;28;20201;-62
2022/08/17 04:20:38;;;;;;;88.40;61.37;;;19.60;99.90;;;;;;4989766;28;20191;-61
2022/08/17 04:23:11;;;;;;;88.87;59.30;;;19.50;99.90;;;;;;4993477;28;20199;-62
2022/08/17 04:25:45;;;;;;;93.60;61.27;;;19.50;99.90;;;;;;4990678;28;20222;-62
2022/08/17 04:28:15;;;;;;;94.43;61.73;;;19.50;99.90;;;;;;4985780;28;20195;-61
2022/08/17 04:30:46;;;;;;;90.43;61.07;;;19.50;99.90;;;;;;4974969;28;20199;-62
2022/08/17 04:33:17;;;;;;;88.83;59.53;;;19.50;99.90;;;;;;4986516;28;20233;-62
2022/08/17 04:35:48;;;;;;;95.13;61.00;;;19.50;99.90;;;;;;4991644;28;20195;-62
2022/08/17 04:38:19;;;;;;;96.07;64.00;;;19.50;99.90;;;;;;4991218;28;20187;-62
2022/08/17 04:43:36;;;;;;;103.50;65.03;;;19.50;99.90;;;;;;4973573;28;20222;-62
2022/08/17 04:46:07;;;;;;;98.33;65.10;;;19.50;99.90;;;;;;4989420;28;20194;-62
2022/08/17 04:48:39;;;;;;;97.57;60.97;;;19.50;99.90;;;;;;4989928;28;20274;-62
2022/08/17 04:51:10;;;;;;;93.97;62.37;;;19.50;99.90;;;;;;4995358;28;20684;-62
2022/08/17 04:53:39;;;;;;;99.57;62.93;;;19.50;99.90;;;;;;4988822;28;20218;-62
2022/08/17 04:56:08;;;;;;;92.47;59.57;;;19.50;99.90;;;;;;4990708;28;20202;-62
2022/08/17 04:58:46;;;;;;;90.07;60.53;;;19.60;99.90;;;;;;4968416;28;20218;-62
2022/08/17 05:01:18;;;;;;;82.97;56.07;;;19.60;99.90;;;;;;4974875;28;20195;-62
2022/08/17 05:03:51;;;;;;;99.40;62.13;;;19.60;99.90;;;;;;4989756;28;20197;-62
2022/08/17 05:06:20;;;;;;;102.13;65.27;;;19.60;99.90;;;;;;4992772;28;20253;-62
2022/08/17 05:08:51;;;;;;;99.83;63.80;;;19.60;99.90;;;;;;4989199;28;20823;-61
2022/08/17 05:11:19;;;;;;;99.97;66.23;;;19.60;99.90;;;;;;4991160;28;20197;-61
2022/08/17 05:13:50;;;;;;;94.77;63.80;;;19.60;99.90;;;;;;4972798;28;20225;-61
2022/08/17 05:16:22;;;;;;;95.53;64.13;;;19.70;99.90;;;;;;4995108;28;20600;-62
2022/08/17 05:18:52;;;;;;;94.27;63.30;;;19.70;99.90;;;;;;4986895;28;20238;-61
2022/08/17 05:21:22;;;;;;;92.47;62.93;;;19.80;99.90;;;;;;4988172;28;20206;-62
2022/08/17 05:23:53;;;;;;;99.40;63.37;;;19.70;99.90;;;;;;4995464;28;20202;-61
2022/08/17 05:26:25;;;;;;;107.03;68.07;;;19.70;99.90;;;;;;4970689;28;20228;-61
2022/08/17 05:28:59;;;;;;;100.60;66.37;;;19.70;99.90;;;;;;4987774;28;20549;-61
2022/08/17 05:31:31;;;;;;;101.97;66.43;;;19.60;99.90;;;;;;4984557;28;20199;-61
2022/08/17 05:33:59;;;;;;;108.57;68.10;;;19.60;99.90;;;;;;4987116;28;20197;-61
2022/08/17 05:36:27;;;;;;;101.83;66.77;;;19.70;99.90;;;;;;4992461;28;20199;-61
2022/08/17 05:39:13;;;;;;;102.50;68.40;;;19.60;99.90;;;;;;4989050;28;20260;-61
2022/08/17 05:41:45;;;;;;;96.47;65.63;;;19.60;99.90;;;;;;5002242;28;20253;-61
2022/08/17 05:44:15;;;;;;;103.40;65.63;;;19.60;99.90;;;;;;4985324;28;20203;-61
2022/08/17 05:46:49;;;;;;;102.57;66.77;;;19.70;99.90;;;;;;4987190;28;20222;-61
2022/08/17 05:49:24;;;;;;;103.77;66.17;;;19.70;99.90;;;;;;4968969;28;20270;-62
2022/08/17 05:52:10;;;;;;;91.73;62.00;;;19.70;99.90;;;;;;4989075;28;21910;-61
2022/08/17 05:54:51;;;;;;;100.30;63.37;;;19.80;99.90;;;;;;4990510;28;20301;-62
2022/08/17 05:57:50;;;;;;;99.83;63.03;;;19.80;99.90;;;;;;4990246;28;20195;-61
2022/08/17 06:00:27;;;;;;;102.10;65.07;;;19.80;99.90;;;;;;4974660;28;20211;-62
2022/08/17 06:03:29;;;;;;;108.07;71.53;;;19.90;99.90;;;;;;4983941;28;20206;-61
2022/08/17 06:06:17;;;;;;;101.13;67.33;;;19.90;99.90;;;;;;4979426;28;20218;-61
2022/08/17 06:08:51;;;;;;;105.83;69.77;;;19.90;99.90;;;;;;4988124;28;20198;-62
2022/08/17 06:11:30;;;;;;;106.27;70.13;;;19.90;99.90;;;;;;4970242;28;20250;-62
2022/08/17 06:14:20;;;;;;;109.07;65.37;;;19.90;99.90;;;;;;5002256;28;20209;-62
2022/08/17 06:16:55;;;;;;;99.27;61.47;;;20.00;99.90;;;;;;4983165;28;20201;-62
2022/08/17 06:19:32;;;;;;;107.43;68.17;;;20.00;99.90;;;;;;4988303;28;20202;-62
2022/08/17 06:22:04;;;;;;;110.13;68.13;;;20.00;99.90;;;;;;4986381;28;20191;-61
2022/08/17 06:24:38;;;;;;;98.80;64.37;;;20.10;99.90;;;;;;4984246;28;20199;-61
2022/08/17 06:27:12;;;;;;;97.73;64.73;;;20.10;99.90;;;;;;4994603;28;20238;-61
2022/08/17 06:29:48;;;;;;;101.30;69.47;;;20.10;99.90;;;;;;4988198;28;20245;-63
2022/08/17 06:32:18;;;;;;;99.73;67.33;;;20.20;99.90;;;;;;4985823;28;20202;-62
2022/08/17 06:34:47;;;;;;;104.07;67.97;;;20.20;99.90;;;;;;4997929;28;20282;-62
2022/08/17 06:37:42;;;;;;;108.40;69.17;;;20.30;99.90;;;;;;5001466;28;20277;-62
2022/08/17 06:40:37;;;;;;;114.80;72.37;;;20.30;99.90;;;;;;4992574;28;20218;-62
2022/08/17 06:43:17;;;;;;;105.70;71.20;;;20.20;99.90;;;;;;4991697;28;20229;-62
2022/08/17 06:45:49;;;;;;;107.10;70.97;;;20.20;99.90;;;;;;4996092;28;20196;-62
2022/08/17 06:48:24;;;;;;;109.93;71.90;;;20.20;99.90;;;;;;4987780;28;20198;-62
2022/08/17 06:50:56;;;;;;;105.87;70.07;;;20.30;99.90;;;;;;4994655;28;20281;-63
2022/08/17 06:53:30;;;;;;;105.10;68.23;;;20.40;99.90;;;;;;4990105;28;20252;-63
2022/08/17 06:56:02;;;;;;;106.00;69.57;;;20.40;99.90;;;;;;4973677;28;20211;-62
2022/08/17 06:58:32;;;;;;;103.77;68.60;;;20.40;99.90;;;;;;4995869;28;20612;-62
2022/08/17 07:01:09;;;;;;;102.97;68.50;;;20.50;99.90;;;;;;4991153;28;20229;-63
2022/08/17 07:03:46;;;;;;;112.33;71.30;;;20.50;99.90;;;;;;4977076;28;20208;-62
2022/08/17 07:06:18;;;;;;;109.30;71.63;;;20.60;99.90;;;;;;4988360;28;20607;-62
2022/08/17 07:08:54;;;;;;;105.50;68.53;;;20.60;99.90;;;;;;4989516;28;20202;-63
2022/08/17 07:11:40;;;;;;;109.73;72.30;;;20.60;99.90;;;;;;4991357;28;20198;-63
2022/08/17 07:14:22;;;;;;;109.97;72.80;;;20.60;99.90;;;;;;4984927;28;20194;-62
2022/08/17 07:16:53;;;;;;;106.53;71.23;;;20.70;99.90;;;;;;4991498;28;20720;-63
2022/08/17 07:19:26;;;;;;;111.80;76.17;;;20.70;99.90;;;;;;4989696;28;20197;-62
2022/08/17 07:22:02;;;;;;;109.30;71.67;;;20.80;99.90;;;;;;4993059;28;20321;-62
2022/08/17 07:24:36;;;;;;;113.53;74.73;;;20.80;99.90;;;;;;4988866;28;20227;-62
2022/08/17 07:27:11;;;;;;;110.60;73.17;;;20.90;99.90;;;;;;4983657;28;20385;-62
2022/08/17 07:29:45;;;;;;;115.10;76.57;;;20.90;99.90;;;;;;4967545;28;20601;-62
2022/08/17 07:32:17;;;;;;;113.57;74.40;;;20.90;99.90;;;;;;4972491;28;20568;-62
2022/08/17 07:35:14;;;;;;;103.70;69.27;;;21.00;99.90;;;;;;4968527;28;20207;-64
2022/08/17 07:37:51;;;;;;;110.17;73.70;;;21.00;99.90;;;;;;4978465;28;20203;-64
2022/08/17 07:40:25;;;;;;;111.27;72.57;;;21.10;99.90;;;;;;4967542;28;20547;-64
2022/08/17 07:43:16;;;;;;;109.73;74.73;;;21.10;99.90;;;;;;4972395;28;20210;-64
2022/08/17 07:49:18;;;;;;;107.67;72.77;;;21.10;99.90;;;;;;4969275;28;20249;-64
2022/08/17 07:51:57;;;;;;;103.00;74.13;;;21.10;99.90;;;;;;4973713;28;20253;-64
2022/08/17 07:54:42;;;;;;;99.13;67.43;;;21.20;99.90;;;;;;4974055;28;20213;-64
2022/08/17 07:57:39;;;;;;;107.30;70.00;;;21.20;99.90;;;;;;4977786;28;20634;-64
2022/08/17 08:00:22;;;;;;;101.30;68.37;;;21.30;99.90;;;;;;4958945;28;20215;-64
2022/08/17 08:03:15;;;;;;;96.80;66.60;;;21.30;99.90;;;;;;4976284;28;20207;-65
2022/08/17 08:05:56;;;;;;;97.17;68.40;;;21.40;99.90;;;;;;4989057;28;20219;-64
2022/08/17 08:08:29;;;;;;;97.50;68.03;;;21.40;99.90;;;;;;4966962;28;20216;-64
2022/08/17 08:11:02;;;;;;;101.37;67.27;;;21.40;99.90;;;;;;4970148;28;20906;-64
2022/08/17 08:13:32;;;;;;;101.13;68.87;;;21.50;99.90;;;;;;4970965;28;20200;-64
2022/08/17 08:16:22;;;;;;;89.03;63.57;;;21.50;99.90;;;;;;4969188;28;20655;-64
2022/08/17 08:18:53;;;;;;;94.33;64.43;;;21.50;99.90;;;;;;4971535;28;20275;-64
2022/08/17 08:21:36;;;;;;;95.43;64.60;;;21.60;99.90;;;;;;4969405;28;20223;-64
2022/08/17 08:24:31;;;;;;;95.33;65.13;;;21.50;99.90;;;;;;4982851;28;20203;-64
2022/08/17 08:27:08;;;;;;;84.20;58.37;;;21.50;99.90;;;;;;4988100;28;20246;-64
2022/08/17 08:29:49;;;;;;;99.00;64.00;;;21.60;99.90;;;;;;5000871;28;20202;-64
2022/08/17 08:32:23;;;;;;;93.90;64.27;;;21.70;99.90;;;;;;4988940;28;20189;-64
2022/08/17 08:35:01;;;;;;;95.90;62.67;;;21.70;99.90;;;;;;4981085;28;20202;-64
2022/08/17 08:37:41;;;;;;;90.13;63.10;;;21.80;99.90;;;;;;4991564;28;20191;-64
2022/08/17 08:40:33;;;;;;;94.43;63.13;;;21.90;99.90;;;;;;4992494;28;20202;-64
2022/08/17 08:43:11;;;;;;;91.03;62.40;;;22.00;99.90;;;;;;4970049;28;20193;-64
2022/08/17 08:45:49;;;;;;;84.20;60.00;;;21.90;99.90;;;;;;4987180;28;20200;-64
2022/08/17 08:48:33;;;;;;;88.90;60.47;;;22.00;99.90;;;;;;4987635;28;20208;-64
2022/08/17 08:51:31;;;;;;;85.67;60.43;;;22.10;99.90;;;;;;4987049;28;20183;-64
2022/08/17 08:54:08;;;;;;;97.27;66.03;;;22.20;99.90;;;;;;4991406;28;20246;-64
2022/08/17 08:56:43;;;;;;;96.90;66.00;;;22.20;99.90;;;;;;4986328;28;20605;-64
2022/08/17 08:59:37;;;;;;;95.43;64.97;;;22.20;99.90;;;;;;4990939;28;20235;-64
2022/08/17 09:02:23;;;;;;;90.80;60.90;;;22.20;99.90;;;;;;4991157;28;20246;-64
2022/08/17 09:05:03;;;;;;;83.77;59.53;;;22.10;99.90;;;;;;4989867;28;20707;-64
2022/08/17 09:07:58;;;;;;;82.50;57.20;;;22.10;99.90;;;;;;4986159;28;20282;-64
2022/08/17 09:10:32;;;;;;;88.43;62.50;;;22.10;99.90;;;;;;5020731;22;20249;-57
2022/08/17 09:13:10;;;;;;;94.43;61.20;;;22.20;99.90;;;;;;4999299;28;20542;-57
2022/08/17 09:15:42;;;;;;;85.03;57.73;;;22.20;99.90;;;;;;5001590;28;20265;-58
2022/08/17 09:18:19;;;;;;;73.30;53.20;;;22.30;99.90;;;;;;5009869;28;20195;-58
2022/08/17 09:21:14;;;;;;;77.97;56.57;;;22.50;99.90;;;;;;5006019;28;20220;-57
2022/08/17 09:23:58;;;;;;;75.73;54.70;;;22.60;99.90;;;;;;5005436;28;20211;-57
2022/08/17 09:26:41;;;;;;;74.17;54.00;;;22.70;99.90;;;;;;5011047;28;20626;-57
2022/08/17 09:29:16;;;;;;;73.93;53.63;;;22.70;99.90;;;;;;5007202;28;20230;-58
2022/08/17 09:31:53;;;;;;;78.30;54.20;;;23.00;99.90;;;;;;5013279;28;20204;-58
2022/08/17 09:34:28;;;;;;;76.73;52.90;;;23.10;99.90;;;;;;4993699;28;20193;-57
2022/08/17 09:37:15;;;;;;;68.97;49.60;;;23.20;99.90;;;;;;5008522;28;20224;-57
2022/08/17 09:39:51;;;;;;;65.87;48.77;;;23.40;99.90;;;;;;5009362;23;20323;-58
2022/08/17 09:42:25;;;;;;;62.93;46.47;;;23.40;99.90;;;;;;5008125;28;20532;-57
2022/08/17 09:45:06;;;;;;;67.43;50.93;;;23.40;99.90;;;;;;5006823;28;20238;-57
2022/08/17 09:47:44;;;;;;;68.73;49.73;;;23.40;99.90;;;;;;5013422;28;22232;-57
2022/08/17 09:50:20;;;;;;;66.97;50.13;;;23.40;99.90;;;;;;5009815;28;20239;-57
2022/08/17 09:53:09;;;;;;;64.43;50.33;;;23.40;99.90;;;;;;5009398;28;20216;-56
2022/08/17 09:55:58;;;;;;;61.50;47.07;;;23.40;99.90;;;;;;5011901;28;20228;-57
2022/08/17 09:58:36;;;;;;;68.17;50.80;;;23.30;99.90;;;;;;5010774;28;20623;-57
2022/08/17 10:01:19;;;;;;;65.60;49.30;;;23.40;99.90;;;;;;5008627;28;20212;-57
2022/08/17 10:04:13;;;;;;;66.83;48.03;;;23.40;99.90;;;;;;5008245;28;20209;-57
2022/08/17 10:06:53;;;;;;;65.83;48.87;;;23.20;99.90;;;;;;4991605;28;20724;-57
2022/08/17 10:09:36;;;;;;;66.27;49.13;;;23.30;99.90;;;;;;5020661;28;20217;-59
2022/08/17 10:12:18;;;;;;;69.67;50.37;;;23.30;99.90;;;;;;5023971;28;20271;-58
2022/08/17 10:15:08;;;;;;;70.87;53.30;;;23.30;99.90;;;;;;4990754;28;20201;-58
2022/08/17 10:17:46;;;;;;;75.00;52.83;;;23.20;99.90;;;;;;5014787;28;20591;-58
2022/08/17 10:20:20;;;;;;;73.53;53.43;;;23.20;99.90;;;;;;5012724;28;20199;-58
2022/08/17 10:28:43;;;;;;;71.80;52.67;;;22.90;99.90;;;;;;5002168;28;20311;-57
2022/08/17 10:31:24;;;;;;;68.27;49.37;;;23.00;99.90;;;;;;4989384;28;20300;-58
2022/08/17 10:34:41;;;;;;;72.27;51.10;;;23.00;99.90;;;;;;5022139;28;20195;-58
2022/08/17 10:37:50;;;;;;;69.07;51.43;;;23.10;99.90;;;;;;5000888;28;20206;-57
2022/08/17 10:40:34;;;;;;;68.23;50.63;;;23.20;99.90;;;;;;4989385;28;20712;-58
2022/08/17 10:43:23;;;;;;;71.53;49.70;;;23.30;99.90;;;;;;4993179;28;20302;-57
2022/08/17 10:46:00;;;;;;;68.87;52.87;;;23.30;99.90;;;;;;5005292;28;20242;-58
2022/08/17 10:49:13;;;;;;;70.80;50.93;;;23.30;99.90;;;;;;4995702;28;20211;-58
2022/08/17 10:51:46;;;;;;;68.60;50.13;;;23.20;99.90;;;;;;4997381;28;20553;-58
2022/08/17 10:54:36;;;;;;;69.93;48.80;;;23.10;99.90;;;;;;5013434;28;20233;-58
2022/08/17 10:57:36;;;;;;;69.03;50.53;;;23.20;99.90;;;;;;5000543;28;20602;-57
2022/08/17 11:00:11;;;;;;;69.60;51.23;;;23.20;99.90;;;;;;5001777;28;20663;-58
2022/08/17 11:02:51;;;;;;;66.33;49.67;;;23.20;99.90;;;;;;5008218;28;20244;-58
2022/08/17 11:05:42;;;;;;;71.03;51.23;;;23.30;99.90;;;;;;5010380;28;20282;-58
2022/08/17 11:08:56;;;;;;;74.27;53.83;;;23.30;99.90;;;;;;5013761;28;20200;-58
2022/08/17 11:11:57;;;;;;;68.50;50.70;;;23.00;99.90;;;;;;5011818;28;20202;-58
2022/08/17 11:14:41;;;;;;;76.73;53.27;;;22.90;99.90;;;;;;5030546;23;20326;-58
2022/08/17 11:17:21;;;;;;;73.10;53.40;;;23.00;99.90;;;;;;5032020;28;20204;-58
2022/08/17 11:20:12;;;;;;;67.33;50.27;;;22.90;99.90;;;;;;5029523;28;20211;-58
2022/08/17 11:23:20;;;;;;;69.03;51.67;;;23.00;99.90;;;;;;5028572;28;20724;-58
2022/08/17 11:25:54;;;;;;;67.73;50.20;;;23.00;99.90;;;;;;5016614;28;20224;-58
2022/08/17 11:28:26;;;;;;;61.77;48.17;;;22.90;99.90;;;;;;5030925;28;20226;-58
2022/08/17 11:30:58;;;;;;;67.23;49.80;;;23.00;99.90;;;;;;5003252;28;20199;-58
2022/08/17 11:33:54;;;;;;;66.17;48.13;;;23.00;99.90;;;;;;5025132;28;20196;-58
2022/08/17 11:36:41;;;;;;;55.97;42.93;;;23.10;99.90;;;;;;5005784;28;20190;-58
2022/08/17 11:39:34;;;;;;;62.00;46.10;;;23.20;99.90;;;;;;4997742;28;20259;-58
2022/08/17 11:42:11;;;;;;;59.17;42.73;;;23.40;99.90;;;;;;5030484;28;20689;-58
2022/08/17 11:44:52;;;;;;;57.00;42.77;;;23.40;99.90;;;;;;5053456;23;20244;-65
2022/08/17 11:53:59;;;;;;;59.37;44.43;;;23.60;99.90;;;;;;4984313;28;20211;-66
2022/08/17 11:56:51;;;;;;;64.47;47.43;;;23.50;99.90;;;;;;5046992;28;20201;-65
2022/08/17 11:59:59;;;;;;;60.37;45.97;;;23.40;99.90;;;;;;5046294;28;20223;-66
2022/08/17 12:02:37;;;;;;;56.00;42.63;;;23.30;99.90;;;;;;5048823;28;20215;-66
2022/08/17 12:05:32;;;;;;;57.27;43.37;;;23.20;99.90;;;;;;5040778;28;20197;-66
2022/08/17 12:08:14;;;;;;;56.63;41.33;;;23.30;99.90;;;;;;5039140;28;20712;-66
2022/08/17 12:10:56;;;;;;;59.07;43.93;;;23.30;99.90;;;;;;5035440;28;20701;-65
2022/08/17 12:13:25;;;;;;;61.50;45.33;;;23.40;99.90;;;;;;5044304;28;20208;-65
2022/08/17 12:16:08;;;;;;;56.50;41.73;;;23.40;99.90;;;;;;5048022;28;20200;-66
2022/08/17 12:18:38;;;;;;;66.50;46.23;;;23.40;99.90;;;;;;5046713;28;20672;-65
2022/08/17 12:21:18;;;;;;;49.40;37.87;;;23.50;99.90;;;;;;5048822;28;20217;-65
2022/08/17 12:23:56;;;;;;;46.47;36.40;;;23.50;99.90;;;;;;5052235;28;20232;-66
2022/08/17 12:26:30;;;;;;;55.00;39.10;;;23.40;99.90;;;;;;5046458;28;20205;-65
2022/08/17 12:29:01;;;;;;;56.23;42.50;;;23.20;99.90;;;;;;5040228;28;20205;-65
2022/08/17 12:31:35;;;;;;;57.80;41.73;;;23.00;99.90;;;;;;5044666;28;20196;-65
2022/08/17 12:34:04;;;;;;;40.83;32.70;;;22.80;99.90;;;;;;5050377;28;20282;-65
2022/08/17 12:36:35;;;;;;;38.73;30.50;;;22.50;99.90;;;;;;5048966;28;20210;-65
2022/08/17 12:39:07;;;;;;;38.60;28.10;;;22.10;99.90;;;;;;5044695;28;20204;-65
2022/08/17 12:41:43;;;;;;;34.83;27.80;;;21.80;99.90;;;;;;5015014;28;20287;-65
2022/08/17 12:44:14;;;;;;;36.60;27.73;;;21.40;99.90;;;;;;5022061;28;20225;-65
2022/08/17 12:46:50;;;;;;;36.97;28.13;;;21.10;99.90;;;;;;5005372;28;20243;-66
2022/08/17 12:49:25;;;;;;;36.57;26.70;;;20.90;99.90;;;;;;5030710;28;20185;-65
2022/08/17 12:52:01;;;;;;;32.43;25.33;;;20.80;99.90;;;;;;5027988;28;20197;-66
2022/08/17 12:54:37;;;;;;;33.10;24.37;;;20.70;99.90;;;;;;5021742;28;20596;-66
2022/08/17 12:57:10;;;;;;;28.00;22.50;;;20.60;99.90;;;;;;5028429;28;20280;-65
2022/08/17 12:59:42;;;;;;;25.30;20.23;;;20.60;99.90;;;;;;5016419;28;20290;-65
2022/08/17 13:02:31;;;;;;;21.67;18.60;;;20.50;99.90;;;;;;5024558;28;20279;-65
2022/08/17 13:05:01;;;;;;;21.27;18.20;;;20.30;99.90;;;;;;5021208;28;20217;-65
2022/08/17 13:07:34;;;;;;;21.60;18.30;;;20.30;99.90;;;;;;5006203;28;20198;-65
2022/08/17 13:10:04;;;;;;;24.30;19.27;;;20.20;99.90;;;;;;5025934;28;20189;-65
2022/08/17 13:12:35;;;;;;;22.87;19.07;;;20.30;99.90;;;;;;5023224;28;20205;-65
2022/08/17 13:15:04;;;;;;;19.30;17.07;;;20.40;99.90;;;;;;5026176;28;20281;-66
2022/08/17 13:17:36;;;;;;;19.40;16.53;;;20.50;99.90;;;;;;5023950;28;20272;-65
2022/08/17 13:20:13;;;;;;;17.70;14.47;;;20.40;99.90;;;;;;5027705;28;20688;-65
2022/08/17 13:22:44;;;;;;;24.37;16.50;;;20.40;99.90;;;;;;5027073;28;20213;-65
2022/08/17 13:25:16;;;;;;;20.90;15.80;;;20.50;99.90;;;;;;5029547;28;20199;-65
2022/08/17 13:27:47;;;;;;;18.50;14.77;;;20.50;99.90;;;;;;5006353;28;20197;-65
2022/08/17 13:30:22;;;;;;;15.70;14.20;;;20.60;99.90;;;;;;5029332;28;20450;-65
2022/08/17 13:32:52;;;;;;;15.20;13.60;;;20.60;99.90;;;;;;5000972;28;20216;-65
2022/08/17 13:35:45;;;;;;;15.77;13.93;;;20.60;99.90;;;;;;5009142;28;20545;-64
2022/08/17 13:38:39;;;;;;;16.53;14.83;;;20.70;99.90;;;;;;5026989;28;20240;-65
2022/08/17 13:41:07;;;;;;;16.47;14.77;;;20.70;99.90;;;;;;5031128;28;20256;-65
2022/08/17 13:43:44;;;;;;;20.80;16.40;;;20.70;99.90;;;;;;5017719;28;20233;-65
2022/08/17 13:46:19;;;;;;;19.30;17.20;;;20.70;99.90;;;;;;5031411;28;20559;-65